VAM | Vabird-VBD

Virtual Vabird! Aerolínea Virtual de habla hispana, desde 2011




 INFORMACIÓN METAR y TAF
METAR FOR UKDE
ADDS - METARS form results

(0207 UTC 22 June 2021)
Data provider http://aviationweather.gov/metar/data/
 
METAR text: UKDE 220200Z 08004MPS 040V130 CAVOK 22/14 Q1011 R02/090070 NOSIG
Conditions at: UKDE (MOKRAYA , UA) observed 0200 UTC 22 June 2021
Temperature: 22.0°C (72°F)
Dewpoint: 14.0°C (57°F) [RH = 60%]
Pressure (altimeter): 29.85 inches Hg (1011.0 mb)
Winds: from the E (80 degrees) at 9 MPH (8 knots; 4.1 m/s)
Visibility: 6 or more miles (10+ km)
Ceiling: ceiling and visibility are OK
Clouds: unknown
Weather: no significant weather observed at this time

METAR text: UKDE 220130Z 08004MPS 040V130 9999 FEW///CB 22/14 Q1011 R02/090070 NOSIG
Conditions at: UKDE (MOKRAYA , UA) observed 0130 UTC 22 June 2021
Temperature: 22.0°C (72°F)
Dewpoint: 14.0°C (57°F) [RH = 60%]
Pressure (altimeter): 29.85 inches Hg (1011.0 mb)
Winds: from the E (80 degrees) at 9 MPH (8 knots; 4.1 m/s)
Visibility: 6 or more miles (10+ km)
Ceiling: unknown
Clouds: missing
Weather: no significant weather observed at this time

Forecast for: UKDE (MOKRAYA , UA)
Text: TAF UKDE 212307Z 2200/2209 10003MPS 6000 SCT020 TX25/2206Z TN19/2202Z
Forecast period: 0000 to 0900 UTC 22 June 2021
Forecast type: FROM: standard forecast or significant change
Winds: from the E (100 degrees) at 7 MPH (6 knots; 3.1 m/s)
Visibility: 4 miles (6 km)
Ceiling: at least 12,000 feet AGL
Clouds: scattered clouds at 2000 feet AGL
Weather: no significant weather forecast for this period
Text: TEMPO 2200/2203 05005MPS 2100 -TSRA SCT005 BKN015CB
Forecast period: 0000 to 0300 UTC 22 June 2021
Forecast type: TEMPORARY: The following changes expected for less than half the time period
Winds: from the NE (50 degrees) at 12 MPH (10 knots; 5.1 m/s)
Visibility: 1.30 miles (2.09 km)
Ceiling: 1500 feet AGL
Clouds: scattered clouds at 500 feet AGL
broken clouds at 1500 feet AGL
Weather: -TSRA  (light rain associated with thunderstorm(s))
Text: PROB40
Forecast period: 0300 to 0900 UTC 22 June 2021
Forecast type: TEMPORARY: The following changes expected for less than half the time period
Visibility: 1.93 miles (3.11 km)
Ceiling: 1500 feet AGL
Clouds: broken clouds at 1500 feet AGL
Weather: -TSRA  (light rain associated with thunderstorm(s))

 MAPA DE AEROPUERTO

 INFORMACIÓN DE PISTA